Time;durP1;ratioP1;P1;durP2;ratioP2;P2;SDS_P1;SDS_P2;PMS_P1;PMS_P2;Temp;Humidity;BMP_temperature;BMP_pressure;BME280_temperature;BME280_humidity;BME280_pressure;Samples;Min_cycle;Max_cycle;Signal;HPM_P1;HPM_P2
2023/03/11 00:01:29;;;;;;;0.40;0.40;;;;;;;;;;5093424;28;20040;-85
2023/03/11 00:03:59;;;;;;;0.20;0.15;;;;;;;;;;5095841;28;21362;-85
2023/03/11 00:06:28;;;;;;;0.20;0.20;;;;;;;;;;5096338;28;20043;-88
2023/03/11 00:08:56;;;;;;;0.10;0.10;;;;;;;;;;5092671;28;20479;-84
2023/03/11 00:11:26;;;;;;;0.30;0.30;;;;;;;;;;5093961;28;20480;-85
2023/03/11 00:13:54;;;;;;;0.20;0.20;;;;;;;;;;5095363;28;20050;-86
2023/03/11 00:16:22;;;;;;;0.10;0.10;;;;;;;;;;5096149;28;20466;-85
2023/03/11 00:18:51;;;;;;;0.22;0.22;;;;;;;;;;5095775;28;20052;-89
2023/03/11 00:21:20;;;;;;;0.15;0.15;;;;;;;;;;5097357;28;20051;-86
2023/03/11 00:23:48;;;;;;;0.22;0.22;;;;;;;;;;5095290;28;20122;-85
2023/03/11 00:26:17;;;;;;;0.20;0.20;;;;;;;;;;5096570;28;20047;-85
2023/03/11 00:28:47;;;;;;;0.20;0.20;;;;;;;;;;5093450;28;20062;-87
2023/03/11 00:31:16;;;;;;;0.15;0.15;;;;;;;;;;5098872;28;20052;-84
2023/03/11 00:33:44;;;;;;;0.20;0.20;;;;;;;;;;5093387;28;21019;-85
2023/03/11 00:36:19;;;;;;;0.60;0.60;;;;;;;;;;5092820;28;20137;-85
2023/03/11 00:38:47;;;;;;;0.10;0.10;;;;;;;;;;5092135;28;20048;-85
2023/03/11 00:41:16;;;;;;;0.32;0.32;;;;;;;;;;5096667;28;20071;-85
2023/03/11 00:43:44;;;;;;;1.35;0.77;;;;;;;;;;5092865;28;20051;-86
2023/03/11 00:46:14;;;;;;;0.10;0.10;;;;;;;;;;5089347;28;20059;-84
2023/03/11 00:48:42;;;;;;;0.10;0.10;;;;;;;;;;5094354;28;20108;-85
2023/03/11 00:51:12;;;;;;;0.45;0.45;;;;;;;;;;5097405;28;20043;-85
2023/03/11 00:53:41;;;;;;;0.40;0.35;;;;;;;;;;5091428;28;20059;-84
2023/03/11 00:56:09;;;;;;;0.10;0.10;;;;;;;;;;5092434;28;20051;-85
2023/03/11 00:58:38;;;;;;;0.10;0.10;;;;;;;;;;5093289;28;20052;-88
2023/03/11 01:01:08;;;;;;;0.20;0.20;;;;;;;;;;5094810;28;20044;-87
2023/03/11 01:03:38;;;;;;;0.38;0.38;;;;;;;;;;5093292;28;20400;-86
2023/03/11 01:06:06;;;;;;;0.10;0.10;;;;;;;;;;5095267;28;20440;-85
2023/03/11 01:08:35;;;;;;;0.20;0.20;;;;;;;;;;5091844;28;20048;-84
2023/03/11 01:11:04;;;;;;;0.55;0.30;;;;;;;;;;5092702;28;20071;-84
2023/03/11 01:13:33;;;;;;;0.22;0.22;;;;;;;;;;5093454;28;20039;-85
2023/03/11 01:16:01;;;;;;;0.30;0.30;;;;;;;;;;5092534;28;20369;-87
2023/03/11 01:18:30;;;;;;;0.30;0.30;;;;;;;;;;5097621;28;20128;-86
2023/03/11 01:21:00;;;;;;;0.25;0.25;;;;;;;;;;5097953;28;20062;-87
2023/03/11 01:23:28;;;;;;;0.30;0.30;;;;;;;;;;5097692;28;20052;-84
2023/03/11 01:25:57;;;;;;;0.20;0.20;;;;;;;;;;5099424;28;20495;-88
2023/03/11 01:28:25;;;;;;;0.20;0.20;;;;;;;;;;5097649;28;20145;-88
2023/03/11 01:30:53;;;;;;;0.20;0.20;;;;;;;;;;5099420;28;20060;-88
2023/03/11 01:33:22;;;;;;;0.10;0.10;;;;;;;;;;5099109;28;20062;-89
2023/03/11 01:35:50;;;;;;;0.50;0.50;;;;;;;;;;5097066;28;20051;-91
2023/03/11 01:38:20;;;;;;;0.10;0.10;;;;;;;;;;5096001;28;20055;-87
2023/03/11 01:40:49;;;;;;;0.20;0.20;;;;;;;;;;5098575;28;20047;-88
2023/03/11 01:43:37;;;;;;;0.10;0.10;;;;;;;;;;5102587;28;20055;-83
2023/03/11 01:46:14;;;;;;;0.15;0.15;;;;;;;;;;5099786;28;20123;-88
2023/03/11 01:48:45;;;;;;;0.40;0.40;;;;;;;;;;5056952;28;20044;-87
2023/03/11 01:51:14;;;;;;;0.50;0.50;;;;;;;;;;5097249;28;20058;-89
2023/03/11 01:53:44;;;;;;;0.35;0.32;;;;;;;;;;5096607;28;20123;-84
2023/03/11 01:56:14;;;;;;;0.17;0.17;;;;;;;;;;5095740;28;20052;-89
2023/03/11 01:58:45;;;;;;;1.13;0.22;;;;;;;;;;5096478;28;20040;-87
2023/03/11 02:01:13;;;;;;;0.20;0.20;;;;;;;;;;5099058;28;20089;-87
2023/03/11 02:03:42;;;;;;;0.10;0.10;;;;;;;;;;5097739;28;20127;-88
2023/03/11 02:06:12;;;;;;;0.20;0.20;;;;;;;;;;5099355;28;20055;-85
2023/03/11 02:08:42;;;;;;;0.20;0.20;;;;;;;;;;5094891;28;20055;-87
2023/03/11 02:11:13;;;;;;;0.28;0.28;;;;;;;;;;5096851;28;20067;-88
2023/03/11 02:13:42;;;;;;;0.10;0.10;;;;;;;;;;5094387;28;20071;-87
2023/03/11 02:16:10;;;;;;;0.10;0.10;;;;;;;;;;5094915;28;20048;-85
2023/03/11 02:18:39;;;;;;;0.20;0.20;;;;;;;;;;5098120;28;20055;-89
2023/03/11 02:21:14;;;;;;;0.20;0.20;;;;;;;;;;5100155;28;20048;-88
2023/03/11 02:23:46;;;;;;;0.30;0.30;;;;;;;;;;5094753;28;20044;-87
2023/03/11 02:26:17;;;;;;;0.20;0.20;;;;;;;;;;5093873;28;20065;-87
2023/03/11 02:28:48;;;;;;;0.10;0.10;;;;;;;;;;5096768;28;20485;-90
2023/03/11 02:31:17;;;;;;;0.10;0.10;;;;;;;;;;5098065;28;20802;-88
2023/03/11 02:33:46;;;;;;;0.30;0.30;;;;;;;;;;5097997;28;20553;-91
2023/03/11 02:36:42;;;;;;;0.20;0.15;;;;;;;;;;5095418;28;20515;-87
2023/03/11 02:39:10;;;;;;;0.57;0.57;;;;;;;;;;5062694;28;20048;-89
2023/03/11 02:41:39;;;;;;;0.25;0.25;;;;;;;;;;5096582;28;20048;-87
2023/03/11 02:44:11;;;;;;;1.55;0.40;;;;;;;;;;5097572;28;20040;-91
2023/03/11 02:46:41;;;;;;;0.10;0.10;;;;;;;;;;5094607;28;20456;-85
2023/03/11 02:49:10;;;;;;;0.20;0.20;;;;;;;;;;5095338;28;20047;-87
2023/03/11 02:51:38;;;;;;;0.10;0.10;;;;;;;;;;5096572;28;20341;-91
2023/03/11 02:54:07;;;;;;;0.10;0.10;;;;;;;;;;5098679;28;20462;-90
2023/03/11 02:56:35;;;;;;;0.45;0.45;;;;;;;;;;5096499;28;20053;-88
2023/03/11 02:59:04;;;;;;;1.30;0.20;;;;;;;;;;5093888;28;20048;-87
2023/03/11 03:01:33;;;;;;;0.20;0.20;;;;;;;;;;5097615;28;20222;-89
2023/03/11 03:04:02;;;;;;;0.10;0.10;;;;;;;;;;5097404;28;20046;-88
2023/03/11 03:06:30;;;;;;;0.40;0.40;;;;;;;;;;5093979;28;20101;-89
2023/03/11 03:08:59;;;;;;;0.20;0.20;;;;;;;;;;5098036;28;20497;-86
2023/03/11 03:11:27;;;;;;;0.30;0.30;;;;;;;;;;5098080;28;20047;-88
2023/03/11 03:13:55;;;;;;;0.20;0.20;;;;;;;;;;5095174;28;20047;-87
2023/03/11 03:16:24;;;;;;;0.20;0.20;;;;;;;;;;5093443;28;20507;-88
2023/03/11 03:18:53;;;;;;;0.30;0.30;;;;;;;;;;5097236;28;20063;-88
2023/03/11 03:21:22;;;;;;;0.40;0.38;;;;;;;;;;5095016;28;20067;-87
2023/03/11 03:23:50;;;;;;;0.20;0.15;;;;;;;;;;5098004;28;20051;-88
2023/03/11 03:26:19;;;;;;;0.10;0.10;;;;;;;;;;5094951;28;20060;-87
2023/03/11 03:28:47;;;;;;;1.02;0.38;;;;;;;;;;5096864;28;20051;-87
2023/03/11 03:31:15;;;;;;;1.08;0.20;;;;;;;;;;5096088;28;20059;-85
2023/03/11 03:33:44;;;;;;;0.20;0.20;;;;;;;;;;5090131;28;20052;-88
2023/03/11 03:36:14;;;;;;;0.20;0.20;;;;;;;;;;5097703;28;20048;-87
2023/03/11 03:38:43;;;;;;;0.20;0.20;;;;;;;;;;5093023;28;20051;-88
2023/03/11 03:41:14;;;;;;;1.27;0.32;;;;;;;;;;5092605;28;20047;-85
2023/03/11 03:43:42;;;;;;;0.20;0.20;;;;;;;;;;5093065;28;20052;-86
2023/03/11 03:46:11;;;;;;;0.20;0.20;;;;;;;;;;5092692;28;20042;-87
2023/03/11 03:48:39;;;;;;;0.20;0.20;;;;;;;;;;5094499;28;20039;-86
2023/03/11 03:51:08;;;;;;;0.10;0.10;;;;;;;;;;5094198;28;20060;-86
2023/03/11 03:53:38;;;;;;;0.20;0.20;;;;;;;;;;5095828;28;20048;-87
2023/03/11 03:56:07;;;;;;;0.30;0.30;;;;;;;;;;5096008;28;20047;-88
2023/03/11 03:58:35;;;;;;;0.10;0.10;;;;;;;;;;5093437;28;20421;-91
2023/03/11 04:01:04;;;;;;;0.13;0.13;;;;;;;;;;5092855;28;20040;-87
2023/03/11 04:03:33;;;;;;;0.75;0.40;;;;;;;;;;5095601;28;20493;-89
2023/03/11 04:06:09;;;;;;;0.13;0.13;;;;;;;;;;5091803;28;20051;-90
2023/03/11 04:08:39;;;;;;;0.20;0.20;;;;;;;;;;5091149;28;20082;-88
2023/03/11 04:11:07;;;;;;;0.55;0.30;;;;;;;;;;5096260;28;20059;-86
2023/03/11 04:13:36;;;;;;;0.20;0.20;;;;;;;;;;5095453;28;20050;-91
2023/03/11 04:16:05;;;;;;;0.13;0.13;;;;;;;;;;5094019;28;20044;-90
2023/03/11 04:18:33;;;;;;;0.10;0.10;;;;;;;;;;5094592;28;20044;-88
2023/03/11 04:21:05;;;;;;;0.28;0.28;;;;;;;;;;5094754;28;20051;-91
2023/03/11 04:23:33;;;;;;;0.20;0.20;;;;;;;;;;5094938;28;20060;-87
2023/03/11 04:26:03;;;;;;;0.10;0.10;;;;;;;;;;5097402;28;20039;-88
2023/03/11 04:28:32;;;;;;;0.30;0.22;;;;;;;;;;5093074;28;20048;-86
2023/03/11 04:31:00;;;;;;;0.10;0.10;;;;;;;;;;5095992;28;20062;-89
2023/03/11 04:33:28;;;;;;;0.20;0.20;;;;;;;;;;5095749;28;20298;-87
2023/03/11 04:35:57;;;;;;;0.32;0.30;;;;;;;;;;5097703;28;20054;-87
2023/03/11 04:38:26;;;;;;;0.20;0.20;;;;;;;;;;5091501;28;20048;-89
2023/03/11 04:40:54;;;;;;;0.10;0.10;;;;;;;;;;5093719;28;20043;-85
2023/03/11 04:43:24;;;;;;;0.30;0.30;;;;;;;;;;5093049;28;20047;-87
2023/03/11 04:45:52;;;;;;;0.17;0.17;;;;;;;;;;5093013;28;20054;-92
2023/03/11 04:48:20;;;;;;;0.25;0.20;;;;;;;;;;5093963;28;20130;-89
2023/03/11 04:50:49;;;;;;;0.22;0.22;;;;;;;;;;5098727;28;20044;-90
2023/03/11 04:53:17;;;;;;;0.10;0.10;;;;;;;;;;5098529;28;20048;-89
2023/03/11 04:55:46;;;;;;;3.50;0.45;;;;;;;;;;5099227;28;20114;-92
2023/03/11 04:58:15;;;;;;;0.20;0.20;;;;;;;;;;5095745;28;20348;-87
2023/03/11 05:00:44;;;;;;;0.10;0.10;;;;;;;;;;5095799;28;20050;-87
2023/03/11 05:03:13;;;;;;;0.17;0.17;;;;;;;;;;5099054;28;20062;-89
2023/03/11 05:05:41;;;;;;;0.15;0.15;;;;;;;;;;5097420;28;20063;-90
2023/03/11 05:08:09;;;;;;;0.20;0.20;;;;;;;;;;5097855;28;20044;-92
2023/03/11 05:10:40;;;;;;;0.80;0.80;;;;;;;;;;5098909;28;20064;-88
2023/03/11 05:13:09;;;;;;;0.20;0.20;;;;;;;;;;5094795;28;20488;-88
2023/03/11 05:15:37;;;;;;;0.25;0.25;;;;;;;;;;5098906;28;20452;-88
2023/03/11 05:18:07;;;;;;;0.20;0.20;;;;;;;;;;5097698;28;20043;-88
2023/03/11 05:20:35;;;;;;;0.50;0.50;;;;;;;;;;5098488;28;20400;-89
2023/03/11 05:23:03;;;;;;;0.30;0.30;;;;;;;;;;5095893;28;20067;-85
2023/03/11 05:25:32;;;;;;;0.85;0.30;;;;;;;;;;5097992;28;20054;-84
2023/03/11 05:28:00;;;;;;;0.20;0.20;;;;;;;;;;5093683;28;20066;-84
2023/03/11 05:30:28;;;;;;;0.20;0.20;;;;;;;;;;5093640;28;20048;-87
2023/03/11 05:32:57;;;;;;;0.20;0.20;;;;;;;;;;5098037;28;20039;-86
2023/03/11 05:35:26;;;;;;;0.20;0.20;;;;;;;;;;5098980;28;20051;-85
2023/03/11 05:37:55;;;;;;;0.20;0.20;;;;;;;;;;5097899;28;20724;-85
2023/03/11 05:40:23;;;;;;;0.20;0.20;;;;;;;;;;5094680;28;20328;-85
2023/03/11 05:42:51;;;;;;;0.10;0.10;;;;;;;;;;5096927;28;20064;-84
2023/03/11 05:45:20;;;;;;;0.30;0.30;;;;;;;;;;5095475;28;20051;-85
2023/03/11 05:47:48;;;;;;;0.20;0.20;;;;;;;;;;5095446;28;20058;-86
2023/03/11 05:50:17;;;;;;;0.20;0.20;;;;;;;;;;5096858;28;20117;-83
2023/03/11 05:52:46;;;;;;;0.13;0.13;;;;;;;;;;5099497;28;20044;-83
2023/03/11 05:55:14;;;;;;;0.13;0.13;;;;;;;;;;5095671;28;20044;-82
2023/03/11 05:57:43;;;;;;;0.20;0.20;;;;;;;;;;5096520;28;20519;-84
2023/03/11 06:00:11;;;;;;;0.20;0.20;;;;;;;;;;5097595;28;20387;-83
2023/03/11 06:02:40;;;;;;;0.10;0.10;;;;;;;;;;5095546;28;20405;-83
2023/03/11 06:05:09;;;;;;;1.10;0.73;;;;;;;;;;5097728;28;20048;-83
2023/03/11 06:07:40;;;;;;;0.20;0.20;;;;;;;;;;5092214;28;20224;-83
2023/03/11 06:10:11;;;;;;;2.47;0.95;;;;;;;;;;5091406;28;20040;-83
2023/03/11 06:12:39;;;;;;;0.10;0.10;;;;;;;;;;5091372;28;20214;-83
2023/03/11 06:15:08;;;;;;;0.17;0.17;;;;;;;;;;5098648;28;20134;-83
2023/03/11 06:17:36;;;;;;;0.20;0.20;;;;;;;;;;5095567;28;20508;-83
2023/03/11 06:20:06;;;;;;;1.23;0.30;;;;;;;;;;5095125;28;20044;-87
2023/03/11 06:22:34;;;;;;;0.30;0.30;;;;;;;;;;5095457;28;20468;-83
2023/03/11 06:25:02;;;;;;;0.20;0.20;;;;;;;;;;5093882;28;20080;-84
2023/03/11 06:27:32;;;;;;;0.10;0.10;;;;;;;;;;5098379;28;20051;-84
2023/03/11 06:30:00;;;;;;;0.52;0.30;;;;;;;;;;5093752;28;20063;-86
2023/03/11 06:32:29;;;;;;;0.20;0.20;;;;;;;;;;5092746;28;20063;-84
2023/03/11 06:34:57;;;;;;;0.30;0.30;;;;;;;;;;5089793;28;20131;-85
2023/03/11 06:37:26;;;;;;;0.90;0.90;;;;;;;;;;5092117;28;20081;-83
2023/03/11 06:39:54;;;;;;;0.75;0.38;;;;;;;;;;5091777;28;20048;-84
2023/03/11 06:42:23;;;;;;;6.68;0.30;;;;;;;;;;5092875;28;20048;-83
2023/03/11 06:44:52;;;;;;;0.90;0.20;;;;;;;;;;5096223;28;20066;-84
2023/03/11 06:47:21;;;;;;;0.20;0.20;;;;;;;;;;5091050;28;20063;-85
2023/03/11 06:49:50;;;;;;;0.55;0.30;;;;;;;;;;5092129;28;20163;-84
2023/03/11 06:52:19;;;;;;;0.25;0.25;;;;;;;;;;5095031;28;20047;-85
2023/03/11 06:54:47;;;;;;;0.43;0.43;;;;;;;;;;5096061;28;20739;-85
2023/03/11 06:57:16;;;;;;;0.10;0.10;;;;;;;;;;5094676;28;20044;-84
2023/03/11 06:59:44;;;;;;;0.10;0.10;;;;;;;;;;5095202;28;20043;-84
2023/03/11 07:02:14;;;;;;;0.25;0.25;;;;;;;;;;5092939;28;20491;-82
2023/03/11 07:04:43;;;;;;;0.13;0.13;;;;;;;;;;5090848;28;20104;-84
2023/03/11 07:07:11;;;;;;;0.20;0.20;;;;;;;;;;5090764;28;20459;-83
2023/03/11 07:09:39;;;;;;;0.10;0.10;;;;;;;;;;5092953;28;20051;-82
2023/03/11 07:12:08;;;;;;;0.10;0.10;;;;;;;;;;5093035;28;20052;-84
2023/03/11 07:14:37;;;;;;;0.20;0.20;;;;;;;;;;5091652;28;20039;-84
2023/03/11 07:17:05;;;;;;;0.60;0.60;;;;;;;;;;5092400;28;20058;-84
2023/03/11 07:19:35;;;;;;;0.65;0.43;;;;;;;;;;5091332;28;20066;-84
2023/03/11 07:22:03;;;;;;;0.40;0.40;;;;;;;;;;5091184;28;20169;-84
2023/03/11 07:24:32;;;;;;;0.60;0.50;;;;;;;;;;5092307;28;20135;-83
2023/03/11 07:27:00;;;;;;;0.20;0.20;;;;;;;;;;5090638;28;20610;-86
2023/03/11 07:29:28;;;;;;;0.10;0.10;;;;;;;;;;5092475;28;20147;-84
2023/03/11 07:31:57;;;;;;;0.30;0.30;;;;;;;;;;5093122;28;20374;-84
2023/03/11 07:34:25;;;;;;;0.22;0.22;;;;;;;;;;5090609;28;20127;-85
2023/03/11 07:36:55;;;;;;;1.02;0.40;;;;;;;;;;5091778;28;20052;-85
2023/03/11 07:39:24;;;;;;;0.30;0.30;;;;;;;;;;5089974;28;20389;-88
2023/03/11 07:41:52;;;;;;;0.30;0.30;;;;;;;;;;5090432;28;20052;-84
2023/03/11 07:44:20;;;;;;;0.35;0.20;;;;;;;;;;5093296;28;20056;-85
2023/03/11 07:46:49;;;;;;;0.20;0.20;;;;;;;;;;5091604;28;20066;-84
2023/03/11 07:49:17;;;;;;;0.30;0.30;;;;;;;;;;5090134;28;20054;-84
2023/03/11 07:51:45;;;;;;;0.30;0.30;;;;;;;;;;5089363;28;20047;-88
2023/03/11 07:54:15;;;;;;;0.30;0.30;;;;;;;;;;5091126;28;20413;-84
2023/03/11 07:56:43;;;;;;;0.25;0.25;;;;;;;;;;5088069;28;20044;-84
2023/03/11 07:59:12;;;;;;;0.20;0.20;;;;;;;;;;5094857;28;20059;-83
2023/03/11 08:01:45;;;;;;;0.20;0.20;;;;;;;;;;5088888;28;20044;-86
2023/03/11 08:04:15;;;;;;;0.20;0.20;;;;;;;;;;5091369;28;20097;-84
2023/03/11 08:06:44;;;;;;;0.10;0.10;;;;;;;;;;5090284;28;20074;-83
2023/03/11 08:09:13;;;;;;;0.20;0.20;;;;;;;;;;5090529;28;20048;-83
2023/03/11 08:11:43;;;;;;;1.00;0.52;;;;;;;;;;5088721;28;20055;-85
2023/03/11 08:14:11;;;;;;;0.45;0.45;;;;;;;;;;5090909;28;20048;-81
2023/03/11 08:16:40;;;;;;;0.25;0.25;;;;;;;;;;5089764;28;20479;-84
2023/03/11 08:19:11;;;;;;;0.25;0.25;;;;;;;;;;5086354;28;20062;-82
2023/03/11 08:21:39;;;;;;;0.38;0.38;;;;;;;;;;5090701;28;20094;-87
2023/03/11 08:24:08;;;;;;;0.10;0.10;;;;;;;;;;5090931;28;20543;-85
2023/03/11 08:26:36;;;;;;;0.10;0.10;;;;;;;;;;5089906;28;20148;-84
2023/03/11 08:29:06;;;;;;;0.13;0.13;;;;;;;;;;5092416;28;20123;-87
2023/03/11 08:31:35;;;;;;;0.30;0.30;;;;;;;;;;5092562;28;20056;-84
2023/03/11 08:34:05;;;;;;;0.20;0.20;;;;;;;;;;5093089;28;20058;-84
2023/03/11 08:36:33;;;;;;;0.20;0.20;;;;;;;;;;5095940;28;20483;-85
2023/03/11 08:39:02;;;;;;;0.55;0.55;;;;;;;;;;5098660;28;20054;-87
2023/03/11 08:41:30;;;;;;;0.30;0.28;;;;;;;;;;5094446;28;20142;-83
2023/03/11 08:43:59;;;;;;;0.20;0.20;;;;;;;;;;5097177;28;20040;-85
2023/03/11 08:46:33;;;;;;;0.20;0.20;;;;;;;;;;5096511;28;20047;-87
2023/03/11 08:49:01;;;;;;;0.32;0.32;;;;;;;;;;5095259;28;20395;-85
2023/03/11 08:51:30;;;;;;;0.10;0.10;;;;;;;;;;5095902;28;20048;-85
2023/03/11 08:53:59;;;;;;;0.20;0.20;;;;;;;;;;5095170;28;20979;-87
2023/03/11 08:56:27;;;;;;;0.20;0.20;;;;;;;;;;5095537;28;20660;-87
2023/03/11 08:58:55;;;;;;;0.25;0.25;;;;;;;;;;5093824;28;20117;-86
2023/03/11 09:01:24;;;;;;;0.30;0.30;;;;;;;;;;5096694;28;20048;-89
2023/03/11 09:03:54;;;;;;;0.30;0.30;;;;;;;;;;5095319;28;20132;-87
2023/03/11 09:06:23;;;;;;;0.28;0.28;;;;;;;;;;5096148;28;20058;-89
2023/03/11 09:08:51;;;;;;;0.20;0.20;;;;;;;;;;5092116;28;20411;-88
2023/03/11 09:11:21;;;;;;;0.20;0.20;;;;;;;;;;5096216;28;20506;-86
2023/03/11 09:13:50;;;;;;;0.40;0.32;;;;;;;;;;5091698;28;20104;-82
2023/03/11 09:16:19;;;;;;;0.52;0.50;;;;;;;;;;5092768;28;20058;-84
2023/03/11 09:18:48;;;;;;;0.22;0.22;;;;;;;;;;5092465;28;20052;-83
2023/03/11 09:21:18;;;;;;;0.30;0.30;;;;;;;;;;5090261;28;20044;-83
2023/03/11 09:23:46;;;;;;;0.10;0.10;;;;;;;;;;5093993;28;20054;-84
2023/03/11 09:26:15;;;;;;;0.20;0.20;;;;;;;;;;5090057;28;20044;-84
2023/03/11 09:28:47;;;;;;;0.30;0.30;;;;;;;;;;5092870;28;20048;-83
2023/03/11 09:31:16;;;;;;;0.22;0.22;;;;;;;;;;5094664;28;20564;-82
2023/03/11 09:33:45;;;;;;;0.43;0.30;;;;;;;;;;5090781;28;20068;-82
2023/03/11 09:36:14;;;;;;;0.35;0.35;;;;;;;;;;5092856;28;20404;-83
2023/03/11 09:38:44;;;;;;;0.40;0.40;;;;;;;;;;5094090;28;21435;-83
2023/03/11 09:41:19;;;;;;;0.20;0.20;;;;;;;;;;5097026;28;20048;-87
2023/03/11 09:43:53;;;;;;;0.45;0.43;;;;;;;;;;5093418;28;20044;-83
2023/03/11 09:46:39;;;;;;;0.20;0.20;;;;;;;;;;5094037;27;20080;-82
2023/03/11 09:49:07;;;;;;;;;;;;;;;;;;5096231;28;20517;-85
2023/03/11 09:51:37;;;;;;;3.75;0.47;;;;;;;;;;5098410;28;20050;-82
2023/03/11 09:54:10;;;;;;;0.20;0.20;;;;;;;;;;5098539;28;20073;-81
2023/03/11 09:56:38;;;;;;;0.28;0.28;;;;;;;;;;5096723;28;20051;-82
2023/03/11 09:59:08;;;;;;;0.15;0.15;;;;;;;;;;5094831;28;20865;-81
2023/03/11 10:01:38;;;;;;;0.38;0.38;;;;;;;;;;5094237;28;20048;-82
2023/03/11 10:04:09;;;;;;;0.10;0.10;;;;;;;;;;5097469;28;20428;-82
2023/03/11 10:06:38;;;;;;;0.20;0.20;;;;;;;;;;5095270;28;20051;-82
2023/03/11 10:09:16;;;;;;;0.20;0.20;;;;;;;;;;5098707;28;20097;-82
2023/03/11 10:11:51;;;;;;;0.10;0.10;;;;;;;;;;5097209;28;20111;-82
2023/03/11 10:14:29;;;;;;;0.20;0.20;;;;;;;;;;5093724;28;20044;-82
2023/03/11 10:17:01;;;;;;;0.30;0.20;;;;;;;;;;5094877;28;20506;-83
2023/03/11 10:19:36;;;;;;;0.32;0.32;;;;;;;;;;5096234;28;20042;-81
2023/03/11 10:22:12;;;;;;;0.25;0.25;;;;;;;;;;5090747;28;20495;-86
2023/03/11 10:25:01;;;;;;;0.38;0.38;;;;;;;;;;5093868;28;20052;-81
2023/03/11 10:27:36;;;;;;;0.20;0.20;;;;;;;;;;5091515;28;20124;-83
2023/03/11 10:30:07;;;;;;;0.30;0.30;;;;;;;;;;5096453;28;20043;-86
2023/03/11 10:32:38;;;;;;;0.65;0.40;;;;;;;;;;5093010;28;20075;-82
2023/03/11 10:35:11;;;;;;;0.20;0.20;;;;;;;;;;5097677;28;20048;-83
2023/03/11 10:37:41;;;;;;;0.30;0.30;;;;;;;;;;5093511;28;20182;-83
2023/03/11 10:40:20;;;;;;;0.40;0.32;;;;;;;;;;5097186;28;20059;-85
2023/03/11 10:42:52;;;;;;;0.30;0.30;;;;;;;;;;5094302;28;20524;-84
2023/03/11 10:45:22;;;;;;;1.38;0.35;;;;;;;;;;5096324;28;20040;-85
2023/03/11 10:47:50;;;;;;;0.30;0.30;;;;;;;;;;5093321;28;20048;-84
2023/03/11 10:50:20;;;;;;;0.20;0.20;;;;;;;;;;5094343;28;20048;-83
2023/03/11 10:53:03;;;;;;;0.20;0.20;;;;;;;;;;5096996;28;20123;-82
2023/03/11 10:55:31;;;;;;;0.20;0.20;;;;;;;;;;5096915;28;20262;-83
2023/03/11 10:58:07;;;;;;;0.40;0.30;;;;;;;;;;5093741;28;20048;-84
2023/03/11 11:00:35;;;;;;;0.10;0.10;;;;;;;;;;5098245;28;20040;-83
2023/03/11 11:03:05;;;;;;;0.20;0.20;;;;;;;;;;5095675;28;20052;-81
2023/03/11 11:05:35;;;;;;;0.00;0.00;;;;;;;;;;5096930;28;20076;-83
2023/03/11 11:08:05;;;;;;;0.73;0.60;;;;;;;;;;5092160;28;20071;-83
2023/03/11 11:10:34;;;;;;;0.30;0.25;;;;;;;;;;5095668;28;20082;-85
2023/03/11 11:13:03;;;;;;;0.95;0.28;;;;;;;;;;5095857;28;20039;-86
2023/03/11 11:15:34;;;;;;;0.10;0.10;;;;;;;;;;5094317;28;20058;-83
2023/03/11 11:18:04;;;;;;;0.15;0.15;;;;;;;;;;5091862;28;20507;-83
2023/03/11 11:20:32;;;;;;;0.20;0.20;;;;;;;;;;5092627;28;20071;-83
2023/03/11 11:23:01;;;;;;;0.25;0.25;;;;;;;;;;5095397;28;20047;-83
2023/03/11 11:25:32;;;;;;;0.10;0.10;;;;;;;;;;5093141;28;20048;-82
2023/03/11 11:28:01;;;;;;;0.65;0.30;;;;;;;;;;5094144;28;20073;-83
2023/03/11 11:30:30;;;;;;;0.20;0.20;;;;;;;;;;5096990;28;20057;-83
2023/03/11 11:33:19;;;;;;;0.30;0.30;;;;;;;;;;5093776;28;20549;-83
2023/03/11 11:35:50;;;;;;;0.52;0.25;;;;;;;;;;5094820;28;20047;-83
2023/03/11 11:38:18;;;;;;;0.40;0.40;;;;;;;;;;5094888;28;20058;-83
2023/03/11 11:40:47;;;;;;;1.55;0.40;;;;;;;;;;5096269;28;20126;-86
2023/03/11 11:43:17;;;;;;;1.45;0.90;;;;;;;;;;5095342;28;20036;-86
2023/03/11 11:45:47;;;;;;;0.30;0.30;;;;;;;;;;5095354;28;20051;-85
2023/03/11 11:48:18;;;;;;;0.30;0.30;;;;;;;;;;5096333;28;20063;-84
2023/03/11 11:50:49;;;;;;;0.22;0.22;;;;;;;;;;5091127;28;20054;-83
2023/03/11 11:53:24;;;;;;;1.55;0.30;;;;;;;;;;5095332;28;20047;-87
2023/03/11 11:55:53;;;;;;;0.40;0.40;;;;;;;;;;5096932;28;20131;-85
2023/03/11 11:58:22;;;;;;;0.38;0.38;;;;;;;;;;5099103;28;20063;-86
2023/03/11 12:00:58;;;;;;;0.20;0.20;;;;;;;;;;5095530;28;20051;-86
2023/03/11 12:03:57;;;;;;;0.20;0.20;;;;;;;;;;5092156;28;20044;-86
2023/03/11 12:06:27;;;;;;;6.03;0.50;;;;;;;;;;5094416;28;20039;-86
2023/03/11 12:09:04;;;;;;;4.63;0.50;;;;;;;;;;5093874;28;20048;-86
2023/03/11 12:11:37;;;;;;;0.20;0.20;;;;;;;;;;5094156;28;20039;-89
2023/03/11 12:14:12;;;;;;;0.43;0.38;;;;;;;;;;5098107;28;20040;-87
2023/03/11 12:16:42;;;;;;;0.75;0.50;;;;;;;;;;5097837;28;20055;-88
2023/03/11 12:19:17;;;;;;;0.25;0.25;;;;;;;;;;5098175;28;20496;-88
2023/03/11 12:21:55;;;;;;;0.20;0.20;;;;;;;;;;5094095;28;20049;-88
2023/03/11 12:24:32;;;;;;;0.30;0.30;;;;;;;;;;5092191;28;20048;-93
2023/03/11 12:27:03;;;;;;;0.20;0.20;;;;;;;;;;5097793;28;20068;-89
2023/03/11 12:29:33;;;;;;;0.38;0.30;;;;;;;;;;5098071;28;20063;-88
2023/03/11 12:32:02;;;;;;;0.20;0.20;;;;;;;;;;5093850;28;20407;-89
2023/03/11 12:34:34;;;;;;;0.65;0.30;;;;;;;;;;5096443;28;20070;-85
2023/03/11 12:37:03;;;;;;;1.85;0.40;;;;;;;;;;5094039;28;20048;-87
2023/03/11 12:39:33;;;;;;;0.30;0.30;;;;;;;;;;5094527;28;20138;-88
2023/03/11 12:42:18;;;;;;;0.30;0.30;;;;;;;;;;5093874;28;20094;-84
2023/03/11 12:44:47;;;;;;;0.20;0.20;;;;;;;;;;5094781;28;20047;-89
2023/03/11 12:47:19;;;;;;;0.30;0.30;;;;;;;;;;5092270;28;20423;-85
2023/03/11 12:49:50;;;;;;;0.40;0.40;;;;;;;;;;5092978;28;20040;-88
2023/03/11 12:52:36;;;;;;;0.20;0.20;;;;;;;;;;5096362;28;20119;-86
2023/03/11 12:55:25;;;;;;;0.20;0.20;;;;;;;;;;5095744;28;20059;-85
2023/03/11 12:57:58;;;;;;;0.30;0.28;;;;;;;;;;5093872;28;20044;-85
2023/03/11 13:00:29;;;;;;;0.38;0.38;;;;;;;;;;5094087;28;20100;-85
2023/03/11 13:03:18;;;;;;;0.73;0.50;;;;;;;;;;5091613;28;20476;-91
2023/03/11 13:05:54;;;;;;;0.25;0.20;;;;;;;;;;5093716;28;20464;-85
2023/03/11 13:08:24;;;;;;;0.30;0.30;;;;;;;;;;5087406;28;20063;-89
2023/03/11 13:10:53;;;;;;;1.13;0.82;;;;;;;;;;5095268;28;20049;-88
2023/03/11 13:13:31;;;;;;;1.65;0.50;;;;;;;;;;5100248;28;20430;-86
2023/03/11 13:16:19;;;;;;;0.32;0.30;;;;;;;;;;5095120;28;20070;-85
2023/03/11 13:18:50;;;;;;;0.40;0.30;;;;;;;;;;5097258;28;20104;-88
2023/03/11 13:21:37;;;;;;;0.20;0.20;;;;;;;;;;5098831;28;20495;-88
2023/03/11 13:24:21;;;;;;;0.50;0.50;;;;;;;;;;5096599;28;20057;-88
2023/03/11 13:26:51;;;;;;;0.30;0.30;;;;;;;;;;5096703;28;20051;-89
2023/03/11 13:29:37;;;;;;;0.40;0.40;;;;;;;;;;5092603;28;20048;-89
2023/03/11 13:32:20;;;;;;;0.20;0.20;;;;;;;;;;5094294;28;20436;-85
2023/03/11 13:34:55;;;;;;;0.40;0.32;;;;;;;;;;5093398;28;20044;-92
2023/03/11 13:37:27;;;;;;;0.25;0.22;;;;;;;;;;5094165;28;20076;-91
2023/03/11 13:40:12;;;;;;;0.38;0.38;;;;;;;;;;5093992;28;20141;-89
2023/03/11 13:42:41;;;;;;;;;;;;;;;;;;5092804;28;20079;-90
2023/03/11 13:45:15;;;;;;;0.10;0.10;;;;;;;;;;5100344;28;20439;-89
2023/03/11 13:47:48;;;;;;;0.20;0.20;;;;;;;;;;5090206;28;20120;-89
2023/03/11 13:50:21;;;;;;;1.48;0.32;;;;;;;;;;5098742;28;20051;-90
2023/03/11 13:52:52;;;;;;;0.40;0.38;;;;;;;;;;5100233;28;20101;-90
2023/03/11 13:55:21;;;;;;;0.30;0.17;;;;;;;;;;5098902;28;20147;-88
2023/03/11 13:57:51;;;;;;;0.30;0.30;;;;;;;;;;5096766;28;20119;-89
2023/03/11 14:00:22;;;;;;;0.40;0.40;;;;;;;;;;5104326;28;20071;-89
2023/03/11 14:02:53;;;;;;;0.70;0.55;;;;;;;;;;5106229;28;20107;-88
2023/03/11 14:05:25;;;;;;;1.05;0.55;;;;;;;;;;5103458;28;20040;-91
2023/03/11 14:07:54;;;;;;;0.20;0.20;;;;;;;;;;5104914;28;20060;-88
2023/03/11 14:10:28;;;;;;;3.08;0.32;;;;;;;;;;5105926;28;20048;-89
2023/03/11 14:13:06;;;;;;;0.47;0.47;;;;;;;;;;5099166;28;20044;-93
2023/03/11 14:15:40;;;;;;;0.40;0.32;;;;;;;;;;5098487;28;20534;-91
2023/03/11 14:18:27;;;;;;;0.20;0.20;;;;;;;;;;5104326;28;20052;-90
2023/03/11 14:20:57;;;;;;;0.10;0.10;;;;;;;;;;5098310;28;20079;-91
2023/03/11 14:23:29;;;;;;;0.30;0.30;;;;;;;;;;5095657;28;20104;-92
2023/03/11 14:26:06;;;;;;;0.75;0.35;;;;;;;;;;5098526;28;20051;-92
2023/03/11 14:28:37;;;;;;;0.20;0.20;;;;;;;;;;5100217;28;20062;-92
2023/03/11 14:31:05;;;;;;;0.20;0.20;;;;;;;;;;5099182;28;20139;-93
2023/03/11 14:33:34;;;;;;;0.13;0.13;;;;;;;;;;5098108;28;20052;-93
2023/03/11 14:36:06;;;;;;;0.25;0.25;;;;;;;;;;5099469;28;20063;-90
2023/03/11 14:38:34;;;;;;;0.28;0.20;;;;;;;;;;5101594;28;20079;-89
2023/03/11 14:41:04;;;;;;;0.22;0.22;;;;;;;;;;5097772;28;20516;-89
2023/03/11 14:43:34;;;;;;;1.33;0.40;;;;;;;;;;5098313;28;20059;-94
2023/03/11 14:46:03;;;;;;;0.22;0.22;;;;;;;;;;5093732;28;20587;-92
2023/03/11 14:48:35;;;;;;;0.63;0.63;;;;;;;;;;5098285;28;20178;-89
2023/03/11 14:51:06;;;;;;;0.20;0.20;;;;;;;;;;5099468;28;20524;-90
2023/03/11 14:53:37;;;;;;;0.40;0.40;;;;;;;;;;5093918;28;20539;-89
2023/03/11 14:56:07;;;;;;;0.63;0.35;;;;;;;;;;5094327;28;20043;-90
2023/03/11 14:58:37;;;;;;;0.30;0.30;;;;;;;;;;5098577;28;20134;-91
2023/03/11 15:01:09;;;;;;;0.47;0.30;;;;;;;;;;5096023;28;20043;-89
2023/03/11 15:03:40;;;;;;;0.63;0.50;;;;;;;;;;5093334;28;20039;-90